Latest Weather Observations for Amberley

IDQ60801

Issued at 8:32 pm EST Saturday 25 June 2016 (issued every 30 minutes, with the page automatically refreshed every 10 minutes)

About weather observations | Map of weather stations | Latest weather observations for QLD | Other Formats
Station Details ID: 040004 Name: AMBERLEY AMO Lat: -27.63 Lon: 152.71 Height: 24.2 m
Data from the previous 72 hours. | See also: Recent months at Amberley
Date/Time
EST
Temp
°C
App
Temp
°C
Dew
Point
°C
Rel
Hum
%
Delta-T
°C
Wind Press
QNH
hPa
Press
MSL
hPa
Rain since
9am
mm
Dir  Spd
km/h
Gust
km/h
Spd
kts
Gust
kts
25/08:30pm 6.3 4.3 2.4 76 1.6 WSW 2 7 1 4 1019.8 1019.8 0.0
25/08:00pm 7.1 5.5 2.5 72 1.9 CALM 0 0 0 0 1019.5 1019.5 0.0
25/07:30pm 7.9 6.2 2.1 67 2.4 CALM 0 0 0 0 1019.3 1019.3 0.0
25/07:00pm 8.7 7.0 1.7 61 2.9 CALM 0 6 0 3 1018.9 1018.9 0.0
25/06:30pm 10.3 8.1 0.8 51 3.9 WNW 2 7 1 4 1018.5 1018.5 0.0
25/06:00pm 10.0 5.7 1.0 53 3.7 NW 13 13 7 7 1018.0 1018.0 0.0
25/05:30pm 11.6 7.2 0.4 46 4.6 NW 13 15 7 8 1017.6 1017.6 0.0
25/05:00pm 12.6 8.2 0.6 44 5.0 NNW 13 15 7 8 1017.3 1017.3 0.0
25/04:30pm 16.2 10.7 -1.8 29 7.4 WNW 17 22 9 12 1017.0 1017.0 0.0
25/04:00pm 17.3 12.5 -2.9 25 8.2 W 13 19 7 10 1016.8 1016.8 0.0
25/03:30pm 17.5 12.4 -1.7 27 8.0 NW 15 19 8 10 1016.6 1016.6 0.0
25/03:00pm 17.8 13.4 -2.7 24 8.4 W 11 17 6 9 1016.6 1016.6 0.0
25/02:30pm 17.6 12.0 -2.7 25 8.3 WNW 17 26 9 14 1016.6 1016.6 0.0
25/02:00pm 17.8 13.4 -2.7 24 8.4 W 11 19 6 10 1016.7 1016.7 0.0
25/01:30pm 18.0 13.0 -4.1 22 8.8 WNW 13 20 7 11 1016.8 1016.8 0.0
25/01:00pm 17.0 11.9 -5.0 22 8.5 SW 13 19 7 10 1017.2 1017.2 0.0
25/12:30pm 16.6 11.6 -4.5 23 8.2 WSW 13 20 7 11 1017.7 1017.7 0.0
25/12:00pm 16.3 10.5 -4.2 24 8.0 W 17 26 9 14 1018.1 1018.1 0.0
25/11:30am 15.8 11.5 -4.8 24 7.9 NW 9 20 5 11 1018.5 1018.5 0.0
25/11:00am 15.5 11.1 -2.8 28 7.3 WNW 11 19 6 10 1018.8 1018.8 0.0
25/10:30am 14.5 10.0 -3.1 29 6.9 WSW 11 15 6 8 1019.2 1019.2 0.0
25/10:00am 14.0 10.5 -1.7 34 6.3 SW 7 15 4 8 1019.1 1019.1 0.0
25/09:30am 13.7 10.1 -2.2 33 6.3 WSW 7 11 4 6 1019.2 1019.2 0.0
25/09:00am 13.2 9.7 -1.2 37 5.8 W 7 11 4 6 1019.0 1019.0 0.2
25/08:30am 12.3 7.9 0.5 44 4.9 WNW 13 19 7 10 1018.7 1018.7 0.2
25/08:00am 10.7 6.1 1.3 52 3.9 NW 15 17 8 9 1018.5 1018.5 0.2
25/07:30am 8.7 5.3 1.9 62 2.8 NNW 9 11 5 6 1018.0 1018.0 0.2
25/07:00am 7.9 4.3 0.3 58 3.0 N 9 11 5 6 1017.6 1017.6 0.2
25/06:30am 7.4 3.1 0.9 63 2.6 NW 13 17 7 9 1017.2 1017.2 0.2
25/06:00am 8.2 3.8 0.4 58 3.1 NNE 13 15 7 8 1017.0 1017.0 0.2
25/05:30am 9.8 5.3 -0.2 50 4.0 WNW 13 20 7 11 1016.5 1016.5 0.2
25/05:00am 8.5 4.6 1.1 59 3.0 NNW 11 17 6 9 1016.1 1016.1 0.2
25/04:30am 10.2 6.2 0.3 50 4.0 NNW 11 19 6 10 1015.7 1015.7 0.2
25/04:00am 11.0 5.2 -0.4 45 4.6 W 20 26 11 14 1015.1 1015.1 0.2
25/03:30am 11.8 7.4 0.4 45 4.7 NNW 13 19 7 10 1015.3 1015.3 0.2
25/03:00am 10.8 6.5 0.9 50 4.1 NNE 13 17 7 9 1014.9 1014.9 0.2
25/02:30am 11.5 6.4 0.6 47 4.5 W 17 26 9 14 1014.6 1014.6 0.2
25/02:00am 12.7 4.9 -0.9 39 5.5 W 30 44 16 24 1014.6 1014.6 0.2
25/01:30am 11.9 5.8 0.6 46 4.7 W 22 30 12 16 1014.8 1014.8 0.2
25/01:00am 11.7 6.7 1.2 48 4.4 WNW 17 22 9 12 1015.0 1015.0 0.2
25/12:30am 13.1 7.4 0.8 43 5.2 W 20 30 11 16 1014.6 1014.6 0.2
25/12:00am 14.1 8.4 0.7 40 5.7 W 20 30 11 16 1014.7 1014.7 0.2
 
Date/Time
EST
Temp
°C
App
Temp
°C
Dew
Point
°C
Rel
Hum
%
Delta-T
°C
Wind Press
QNH
hPa
Press
MSL
hPa
Rain since
9am
mm
Dir  Spd
km/h
Gust
km/h
Spd
kts
Gust
kts
24/11:30pm 14.1 9.2 1.7 43 5.4 WNW 17 26 9 14 1014.9 1014.9 0.2
24/11:00pm 14.3 8.6 2.6 45 5.2 W 22 33 12 18 1014.8 1014.8 0.2
24/10:30pm 14.5 8.2 3.5 47 5.0 W 26 33 14 18 1014.9 1014.9 0.2
24/10:00pm 15.4 8.7 3.6 45 5.4 W 28 35 15 19 1015.0 1015.0 0.2
24/09:30pm 15.5 10.1 4.3 47 5.2 W 22 32 12 17 1014.9 1014.9 0.2
24/09:00pm 15.9 10.1 4.6 47 5.3 W 24 35 13 19 1014.7 1014.7 0.2
24/08:30pm 15.8 10.8 4.8 48 5.2 W 20 30 11 16 1014.7 1014.7 0.2
24/08:00pm 16.0 11.6 4.5 46 5.4 W 17 26 9 14 1014.3 1014.3 0.2
24/07:30pm 16.4 12.0 4.8 46 5.5 W 17 30 9 16 1014.1 1014.1 0.2
24/07:00pm 16.8 12.0 5.6 47 5.4 W 20 30 11 16 1013.5 1013.5 0.2
24/06:30pm 17.0 11.5 5.9 48 5.4 W 24 37 13 20 1013.1 1013.1 0.2
24/06:00pm 18.1 12.4 6.7 47 5.7 W 26 39 14 21 1012.5 1012.5 0.2
24/05:30pm 18.4 12.9 9.3 55 4.8 W 28 39 15 21 1011.7 1011.7 0.2
24/05:00pm 18.9 15.2 10.1 56 4.7 W 20 32 11 17 1010.9 1010.9 0.2
24/04:30pm 19.7 15.2 10.0 53 5.2 W 24 35 13 19 1010.6 1010.6 0.2
24/04:00pm 20.4 14.8 10.0 51 5.6 W 30 41 16 22 1010.5 1010.5 0.2
24/03:30pm 21.3 15.5 10.7 50 5.8 WNW 32 41 17 22 1010.0 1010.0 0.2
24/03:00pm 20.6 14.8 10.7 53 5.4 W 32 43 17 23 1009.9 1009.9 0.2
24/02:30pm 20.7 15.2 11.9 57 4.9 W 32 48 17 26 1009.7 1009.7 0.2
24/02:00pm 22.4 17.0 12.2 52 5.8 W 32 44 17 24 1009.4 1009.4 0.2
24/01:30pm 22.3 16.8 11.8 51 5.9 WNW 32 50 17 27 1009.5 1009.5 0.2
24/01:00pm 22.2 17.4 11.7 51 5.9 W 28 43 15 23 1010.0 1010.0 0.2
24/12:30pm 22.0 16.9 13.1 57 5.1 WNW 32 44 17 24 1010.3 1010.3 0.2
24/12:00pm 21.9 16.9 13.4 58 4.9 WNW 32 44 17 24 1010.9 1010.9 0.2
24/11:30am 19.7 14.8 13.6 68 3.5 WNW 32 46 17 25 1011.4 1011.4 0.2
24/11:00am 20.9 15.5 13.8 64 4.1 WNW 35 46 19 25 1011.8 1011.8 0.2
24/10:30am 20.0 15.0 13.5 66 3.7 WNW 32 43 17 23 1012.3 1012.3 0.2
24/10:00am 20.1 16.0 13.7 66 3.7 WNW 28 35 15 19 1012.6 1012.6 0.0
24/09:30am 19.6 16.2 13.7 68 3.4 WNW 24 37 13 20 1012.8 1012.8 0.0
24/09:00am 17.7 15.0 13.6 77 2.3 WNW 20 28 11 15 1012.7 1012.7 0.4
24/08:30am 17.6 15.1 13.5 77 2.3 WNW 19 26 10 14 1012.6 1012.6 0.4
24/08:00am 17.8 15.1 13.6 76 2.4 WNW 20 28 11 15 1012.6 1012.6 0.4
24/07:30am 16.4 14.9 13.2 81 1.8 WNW 13 17 7 9 1012.4 1012.4 0.4
24/07:00am 15.2 14.9 12.8 85 1.3 WNW 6 7 3 4 1012.1 1012.1 0.4
24/06:30am 15.2 14.9 12.8 85 1.3 WSW 6 9 3 5 1012.1 1012.1 0.4
24/06:00am 15.4 15.2 12.9 85 1.4 WSW 6 9 3 5 1011.5 1011.5 0.4
24/05:30am 15.3 14.6 13.1 87 1.2 NW 9 13 5 7 1011.7 1011.7 0.4
24/05:00am 15.6 14.0 12.9 84 1.5 NW 13 17 7 9 1011.6 1011.6 0.4
24/04:30am 15.5 13.3 13.2 86 1.3 NW 17 20 9 11 1011.6 1011.6 0.4
24/04:00am 14.7 13.3 13.3 91 0.8 NNW 13 15 7 8 1011.5 1011.5 0.4
24/03:30am 14.5 15.5 13.2 92 0.7 CALM 0 0 0 0 1011.4 1011.4 0.4
24/03:00am 14.5 15.1 13.1 91 0.8 NNE 2 7 1 4 1011.4 1011.4 0.4
24/02:30am 14.6 14.2 13.0 90 0.9 N 7 7 4 4 1011.6 1011.6 0.4
24/02:00am 14.8 14.0 13.0 89 1.0 NNW 9 11 5 6 1011.7 1011.7 0.4
24/01:30am 15.1 14.9 12.9 87 1.2 N 6 11 3 6 1012.2 1012.2 0.4
24/01:00am 15.3 16.3 13.1 87 1.2 CALM 0 0 0 0 1012.7 1012.7 0.2
24/12:30am 15.3 14.6 13.3 88 1.1 NW 9 9 5 5 1012.9 1012.9 0.2
24/12:00am 15.5 15.4 13.4 87 1.2 W 6 9 3 5 1012.6 1012.6 0.2
 
Date/Time
EST
Temp
°C
App
Temp
°C
Dew
Point
°C
Rel
Hum
%
Delta-T
°C
Wind Press
QNH
hPa
Press
MSL
hPa
Rain since
9am
mm
Dir  Spd
km/h
Gust
km/h
Spd
kts
Gust
kts
23/11:30pm 16.1 16.6 12.7 80 1.9 W 2 7 1 4 1012.8 1012.8 0.2
23/11:00pm 15.5 16.4 13.0 85 1.4 CALM 0 2 0 1 1012.7 1012.7 0.2
23/10:30pm 15.7 15.3 13.0 84 1.5 NW 7 9 4 5 1013.2 1013.2 0.2
23/10:00pm 16.0 15.1 12.7 81 1.8 NW 9 11 5 6 1013.3 1013.3 0.2
23/09:30pm 16.1 15.7 12.9 81 1.8 NNW 7 11 4 6 1013.2 1013.2 0.2
23/09:00pm 15.9 15.5 13.0 83 1.6 NNW 7 11 4 6 1013.1 1013.1 0.2
23/08:30pm 16.2 15.3 12.6 79 2.0 NNW 9 13 5 7 1012.8 1012.8 0.2
23/08:00pm 15.6 14.8 12.9 84 1.5 N 9 11 5 6 1012.9 1012.9 0.2
23/07:30pm 15.8 15.3 12.7 82 1.7 NNW 7 7 4 4 1012.9 1012.9 0.2
23/07:00pm 15.9 15.4 12.6 81 1.8 NNW 7 9 4 5 1012.8 1012.8 0.2
23/06:30pm 15.3 15.1 13.0 86 1.3 NW 6 7 3 4 1012.7 1012.7 0.2
23/06:00pm 15.5 15.2 12.8 84 1.5 NW 6 7 3 4 1012.4 1012.4 0.2
23/05:30pm 16.1 15.9 13.0 82 1.7 NW 6 7 3 4 1012.1 1012.1 0.2
23/05:00pm 16.7 16.6 13.3 80 1.9 NW 6 9 3 5 1012.2 1012.2 0.2
23/04:30pm 17.2 16.0 12.9 76 2.4 NW 11 13 6 7 1012.2 1012.2 0.2
23/04:00pm 17.4 16.2 12.9 75 2.5 NW 11 15 6 8 1012.1 1012.1 0.2
23/03:30pm 17.4 15.7 12.5 73 2.7 WNW 13 17 7 9 1012.1 1012.1 0.2
23/03:00pm 17.1 15.4 12.6 75 2.5 WNW 13 19 7 10 1012.5 1012.5 0.2
23/02:30pm 18.5 16.3 10.7 60 4.2 WNW 13 19 7 10 1012.6 1012.6 0.0
23/02:00pm 18.2 16.0 10.8 62 4.0 W 13 19 7 10 1012.6 1012.6 0.0
23/01:30pm 18.5 16.5 10.3 59 4.4 W 11 17 6 9 1012.9 1012.9 0.0
23/01:00pm 17.9 15.3 10.6 62 3.9 W 15 19 8 10 1013.3 1013.3 0.0
23/12:30pm 18.3 16.0 10.5 60 4.2 W 13 20 7 11 1014.0 1014.0 0.0
23/12:00pm 17.4 14.7 10.5 64 3.7 WNW 15 20 8 11 1014.6 1014.6 0.0
23/11:30am 17.6 14.9 10.5 63 3.8 WNW 15 19 8 10 1014.9 1014.9 0.0
23/11:00am 17.1 14.3 10.1 63 3.7 W 15 19 8 10 1015.3 1015.3 0.0
23/10:30am 16.9 15.9 12.2 74 2.6 W 9 15 5 8 1015.5 1015.5 0.0
23/10:00am 15.3 13.5 11.0 75 2.3 W 11 13 6 7 1016.3 1016.3 0.0
23/09:30am 14.9 13.0 11.7 81 1.7 WNW 13 20 7 11 1016.1 1016.1 0.0
23/09:00am 14.5 11.9 11.9 84 1.4 NW 17 22 9 12 1016.1 1016.1 4.4
23/08:30am 14.0 11.8 12.0 88 1.1 NNW 15 19 8 10 1015.7 1015.7 4.4
23/08:00am 13.6 12.2 12.3 92 0.7 NW 11 13 6 7 1015.7 1015.7 4.4
23/07:30am 13.2 11.7 11.9 92 0.7 NNW 11 15 6 8 1015.4 1015.4 4.4
23/07:00am 13.0 13.5 11.5 91 0.8 CALM 0 0 0 0 1015.1 1015.1 4.4
23/06:30am 13.2 12.5 11.5 89 0.9 SW 6 9 3 5 1014.8 1014.8 4.4
23/06:00am 13.2 12.3 11.5 89 0.9 WNW 7 11 4 6 1014.7 1014.7 4.0
23/05:30am 13.4 11.0 11.5 88 1.0 NNW 15 20 8 11 1014.1 1014.1 3.6
23/05:00am 13.4 11.1 11.9 91 0.8 NW 15 19 8 10 1014.6 1014.6 2.4
23/04:30am 13.6 11.7 11.9 89 0.9 NW 13 17 7 9 1014.7 1014.7 1.4
23/04:00am 13.6 11.7 11.9 89 0.9 NNW 13 17 7 9 1013.9 1013.9 0.6
23/03:30am 14.3 12.6 11.3 82 1.6 NNW 11 15 6 8 1013.6 1013.6 0.0
23/03:00am 14.9 13.1 10.7 76 2.2 NNW 11 13 6 7 1013.2 1013.2 0.0
23/02:30am 15.3 12.6 10.4 72 2.6 NW 15 20 8 11 1013.1 1013.1 0.0
23/02:00am 15.3 12.7 10.6 73 2.5 NW 15 17 8 9 1013.8 1013.8 0.0
23/01:30am 15.1 12.5 10.8 75 2.3 NW 15 19 8 10 1013.5 1013.5 0.0
23/01:00am 15.6 13.8 10.7 72 2.6 N 11 15 6 8 1013.5 1013.5 0.0
23/12:30am 15.8 14.0 10.7 71 2.7 NNW 11 15 6 8 1014.2 1014.2 0.0
23/12:00am 15.7 13.9 10.8 72 2.6 NW 11 15 6 8 1014.6 1014.6 0.0
 
Date/Time
EST
Temp
°C
App
Temp
°C
Dew
Point
°C
Rel
Hum
%
Delta-T
°C
Wind Press
QNH
hPa
Press
MSL
hPa
Rain since
9am
mm
Dir  Spd
km/h
Gust
km/h
Spd
kts
Gust
kts
22/11:30pm 16.1 13.0 10.4 69 3.0 WNW 17 24 9 13 1014.1 1014.1 0.0
22/11:00pm 15.6 14.1 10.5 71 2.7 NW 9 11 5 6 1013.8 1013.8 0.0
22/10:30pm 15.8 14.3 10.7 71 2.7 W 9 11 5 6 1014.6 1014.6 0.0
22/10:00pm 15.8 13.5 10.5 71 2.8 W 13 17 7 9 1014.2 1014.2 0.0
22/09:30pm 16.4 15.2 10.4 67 3.2 WNW 7 13 4 7 1013.9 1013.9 0.0
22/09:00pm 16.3 14.7 10.2 67 3.2 W 9 11 5 6 1014.1 1014.1 0.0

Other Formats:

Comma delimited format used in spreadsheet applications
http://www.bom.gov.au/fwo/IDQ60801/IDQ60801.94568.axf

JavaScript Object Notation format (JSON) in row-major order
http://www.bom.gov.au/fwo/IDQ60801/IDQ60801.94568.json